Main page
METAR-TAF:

METAR-TAF

Airports :

Capitán de Corbeta Carlos A. Curbelo International Airport

Punta del Este, Uruguay

latitude: 34-52S, longitude: 055-06W, elevation: 30 m

Current weather observation

The report was made 32 minutes ago, at 18:00 UTC
Wind 8 kt from the West/Southwest
Temperature 20°C
Humidity 37%
Pressure 1025 hPa
Visibility 10 km or more
no clouds below 1500 m and no cumulonimbus

METAR: SULS 161800Z 24008KT CAVOK 20/05 Q1025

Time: 15:32 (18:32 UTC)

Forecast

The report was made 1 hour and 2 minutes ago, at 17:30 UTC
Forecast valid from 16 at 18 UTC to 17 at 18 UTC
Wind 12 kt from the West
Visibility 10 km or more
no clouds below 1500 m and no cumulonimbus
Becoming
from 16 at 23 UTC to 17 at 02 UTC
Wind 5 kt from the North/Northeast

TAF: SULS 161730Z 1618/1718 28012KT CAVOK TX23/1718Z TN09/1710Z BECMG 1623/1702 02005KT

Weather observations and forecasts of more than 4000 airports (METAR and TAF reports).

The available stations are represented by yellow and red dots on the map.

Hover mouse over dot to see the name of the station.

Then click to see weather observations and forecasts.

To change the map : click on the green buttons with a black cross to zoom in, on the green button with a dash to zoom out, or on the green arrows for adjacent maps.


METAR-TAF: